createdAt,value
2022-10-17T00:00:37.412Z,14.40
2022-10-17T00:03:04.261Z,14.40
2022-10-17T00:05:31.087Z,14.40
2022-10-17T00:07:57.890Z,14.30
2022-10-17T00:10:24.896Z,14.30
2022-10-17T00:12:52.509Z,14.30
2022-10-17T00:15:20.847Z,14.30
2022-10-17T00:17:47.632Z,14.30
2022-10-17T00:20:15.604Z,14.30
2022-10-17T00:22:42.571Z,14.40
2022-10-17T00:25:10.037Z,14.30
2022-10-17T00:27:38.331Z,14.30
2022-10-17T00:30:07.470Z,14.20
2022-10-17T00:32:34.382Z,14.10
2022-10-17T00:35:01.490Z,14.20
2022-10-17T00:37:30.110Z,14.30
2022-10-17T00:39:56.955Z,14.30
2022-10-17T00:42:25.217Z,14.40
2022-10-17T00:45:03.334Z,14.40
2022-10-17T00:47:30.991Z,14.30
2022-10-17T00:49:59.163Z,14.40
2022-10-17T00:52:31.031Z,14.30
2022-10-17T00:55:09.145Z,14.40
2022-10-17T00:57:36.270Z,14.30
2022-10-17T01:00:07.170Z,14.30
2022-10-17T01:02:35.205Z,14.30
2022-10-17T01:05:02.550Z,14.20
2022-10-17T01:07:33.214Z,14.10
2022-10-17T01:10:04.986Z,14.20
2022-10-17T01:12:52.369Z,14.10
2022-10-17T01:15:24.115Z,14.10
2022-10-17T01:18:12.010Z,14.20
2022-10-17T01:20:53.935Z,14.20
2022-10-17T01:23:41.853Z,14.20
2022-10-17T01:26:19.193Z,14.20
2022-10-17T01:29:25.262Z,14.40
2022-10-17T01:32:06.064Z,14.30
2022-10-17T01:34:39.032Z,14.30
2022-10-17T01:37:15.398Z,14.30
2022-10-17T01:42:36.079Z,14.20
2022-10-17T01:45:25.905Z,14.10
2022-10-17T01:47:54.537Z,14.10
2022-10-17T01:50:29.678Z,14.10
2022-10-17T01:53:03.999Z,14.20
2022-10-17T01:55:41.898Z,14.20
2022-10-17T01:58:33.715Z,14.30
2022-10-17T02:01:05.144Z,14.30
2022-10-17T02:03:34.537Z,14.30
2022-10-17T02:06:02.215Z,14.30
2022-10-17T02:08:46.138Z,14.40
2022-10-17T02:11:23.937Z,14.40
2022-10-17T02:14:05.869Z,14.30
2022-10-17T02:16:43.062Z,14.30
2022-10-17T02:19:09.824Z,14.20
2022-10-17T02:21:58.252Z,14.20
2022-10-17T02:24:59.099Z,14.20
2022-10-17T02:27:57.709Z,14.30
2022-10-17T02:30:37.629Z,14.30
2022-10-17T02:33:13.651Z,14.20
2022-10-17T02:35:46.959Z,14.20
2022-10-17T02:38:15.167Z,14.20
2022-10-17T02:40:46.002Z,14.30
2022-10-17T02:43:14.198Z,14.30
2022-10-17T02:45:41.732Z,14.40
2022-10-17T02:48:30.617Z,14.40
2022-10-17T02:51:25.195Z,14.40
2022-10-17T02:54:07.085Z,14.40
2022-10-17T02:56:43.058Z,14.30
2022-10-17T02:59:14.158Z,14.30
2022-10-17T03:01:42.069Z,14.30
2022-10-17T03:04:11.125Z,14.30
2022-10-17T03:06:38.422Z,14.30
2022-10-17T03:09:06.648Z,14.30
2022-10-17T03:11:33.856Z,14.30
2022-10-17T03:14:00.742Z,14.30
2022-10-17T03:16:28.215Z,14.30
2022-10-17T03:18:55.960Z,14.30
2022-10-17T03:21:22.878Z,14.30
2022-10-17T03:23:49.733Z,14.30
2022-10-17T03:26:18.565Z,14.30
2022-10-17T03:28:45.451Z,14.30
2022-10-17T03:31:17.134Z,14.30
2022-10-17T03:33:45.233Z,14.30
2022-10-17T03:36:17.452Z,14.20
2022-10-17T03:38:46.429Z,14.20
2022-10-17T03:41:13.806Z,14.20
2022-10-17T03:43:40.947Z,14.20
2022-10-17T03:46:08.852Z,14.10
2022-10-17T03:48:37.001Z,14.00
2022-10-17T03:51:06.980Z,14.00
2022-10-17T03:53:37.823Z,14.00
2022-10-17T03:56:25.991Z,14.00
2022-10-17T03:59:15.385Z,14.10
2022-10-17T04:01:46.753Z,14.10
2022-10-17T04:04:13.885Z,14.10
2022-10-17T04:06:40.712Z,14.10
2022-10-17T04:09:07.759Z,14.30
2022-10-17T04:11:43.797Z,14.30
2022-10-17T04:14:10.966Z,14.30
2022-10-17T04:16:39.397Z,14.40
2022-10-17T04:19:13.358Z,14.50
2022-10-17T04:21:44.180Z,14.40
2022-10-17T04:24:12.117Z,14.40
2022-10-17T04:27:14.359Z,14.40
2022-10-17T04:29:44.857Z,14.50
2022-10-17T04:32:22.574Z,14.40
2022-10-17T04:35:02.949Z,14.30
2022-10-17T04:37:30.396Z,14.30
2022-10-17T04:39:58.969Z,14.40
2022-10-17T04:42:30.513Z,14.50
2022-10-17T04:44:57.852Z,14.50
2022-10-17T04:47:26.229Z,14.40
2022-10-17T04:49:53.128Z,14.40
2022-10-17T04:52:21.926Z,14.40
2022-10-17T04:54:50.250Z,14.40
2022-10-17T04:57:18.755Z,14.30
2022-10-17T04:59:56.144Z,14.30
2022-10-17T05:02:46.311Z,14.30
2022-10-17T05:05:13.298Z,14.30
2022-10-17T05:07:40.891Z,14.30
2022-10-17T05:10:13.729Z,14.30
2022-10-17T05:12:44.126Z,14.40
2022-10-17T05:15:11.142Z,14.40
2022-10-17T05:17:37.905Z,14.40
2022-10-17T05:20:06.186Z,14.30
2022-10-17T05:22:37.130Z,14.20
2022-10-17T05:25:07.281Z,14.20
2022-10-17T05:27:34.211Z,14.20
2022-10-17T05:30:01.382Z,14.20
2022-10-17T05:32:31.355Z,14.10
2022-10-17T05:34:58.716Z,14.20
2022-10-17T05:37:26.363Z,14.20
2022-10-17T05:39:55.910Z,14.20
2022-10-17T05:42:22.759Z,14.30
2022-10-17T05:44:49.893Z,14.40
2022-10-17T05:47:19.086Z,14.40
2022-10-17T05:49:49.965Z,14.40
2022-10-17T05:52:22.276Z,14.40
2022-10-17T05:55:00.292Z,14.30
2022-10-17T05:57:27.622Z,14.30
2022-10-17T05:59:54.880Z,14.30
2022-10-17T06:02:22.604Z,14.30
2022-10-17T06:04:50.409Z,14.20
2022-10-17T06:07:19.286Z,14.20
2022-10-17T06:09:47.425Z,14.30
2022-10-17T06:12:15.012Z,14.30
2022-10-17T06:14:42.851Z,14.40
2022-10-17T06:17:15.790Z,14.50
2022-10-17T06:19:44.871Z,14.60
2022-10-17T06:22:14.533Z,14.80
2022-10-17T06:24:42.544Z,14.80
2022-10-17T06:27:11.931Z,14.90
2022-10-17T06:29:40.118Z,14.90
2022-10-17T06:32:09.848Z,15.00
2022-10-17T06:34:40.524Z,15.00
2022-10-17T06:37:07.374Z,14.90
2022-10-17T06:39:36.069Z,14.90
2022-10-17T06:42:07.277Z,15.00
2022-10-17T06:44:54.367Z,14.90
2022-10-17T06:47:40.201Z,15.00
2022-10-17T06:50:21.915Z,15.00
2022-10-17T06:52:59.298Z,15.10
2022-10-17T06:55:54.108Z,15.20
2022-10-17T06:58:39.154Z,15.40
2022-10-17T07:01:13.182Z,15.60
2022-10-17T07:03:41.343Z,16.00
2022-10-17T07:06:10.744Z,16.40
2022-10-17T07:08:42.185Z,16.40
2022-10-17T07:11:18.148Z,16.60
2022-10-17T07:13:45.494Z,16.80
2022-10-17T07:16:13.371Z,16.90
2022-10-17T07:18:42.415Z,17.00
2022-10-17T07:21:09.461Z,17.00
2022-10-17T07:23:38.600Z,16.90
2022-10-17T07:26:14.464Z,16.90
2022-10-17T07:28:44.620Z,16.80
2022-10-17T07:31:25.005Z,16.80
2022-10-17T07:33:51.926Z,16.80
2022-10-17T07:36:19.198Z,16.90
2022-10-17T07:38:47.507Z,17.20
2022-10-17T07:41:19.195Z,17.60
2022-10-17T07:43:49.148Z,18.10
2022-10-17T07:46:20.055Z,18.40
2022-10-17T07:48:47.170Z,18.50
2022-10-17T07:51:14.361Z,18.80
2022-10-17T07:53:46.378Z,18.90
2022-10-17T07:56:15.562Z,19.20
2022-10-17T07:58:42.904Z,19.30
2022-10-17T08:01:15.499Z,19.50
2022-10-17T08:03:50.591Z,19.60
2022-10-17T08:06:17.781Z,19.80
2022-10-17T08:08:44.803Z,20.10
2022-10-17T08:11:14.104Z,20.30
2022-10-17T08:13:41.776Z,20.40
2022-10-17T08:16:11.491Z,20.50
2022-10-17T08:18:39.925Z,20.50
2022-10-17T08:21:08.361Z,20.20
2022-10-17T08:23:36.126Z,20.20
2022-10-17T08:26:05.101Z,20.10
2022-10-17T08:28:35.388Z,19.90
2022-10-17T08:31:04.825Z,19.70
2022-10-17T08:33:33.176Z,19.50
2022-10-17T08:36:04.165Z,19.40
2022-10-17T08:38:35.130Z,19.30
2022-10-17T08:41:06.721Z,19.20
2022-10-17T08:43:45.083Z,19.20
2022-10-17T08:46:12.532Z,19.30
2022-10-17T08:48:46.322Z,19.30
2022-10-17T08:51:31.898Z,19.30
2022-10-17T08:54:11.018Z,19.30
2022-10-17T08:56:48.910Z,19.10
2022-10-17T08:59:30.150Z,19.10
2022-10-17T09:02:18.492Z,19.20
2022-10-17T09:05:23.961Z,19.50
2022-10-17T09:07:59.338Z,19.60
2022-10-17T09:10:46.270Z,19.50
2022-10-17T09:13:31.830Z,19.50
2022-10-17T09:15:58.742Z,19.60
2022-10-17T09:18:35.502Z,19.50
2022-10-17T09:21:26.626Z,19.30
2022-10-17T09:24:09.645Z,19.20
2022-10-17T09:26:44.229Z,19.20
2022-10-17T09:29:29.599Z,19.20
2022-10-17T09:32:09.014Z,19.20
2022-10-17T09:34:35.802Z,19.20
2022-10-17T09:37:03.606Z,19.20
2022-10-17T09:39:33.527Z,19.10
2022-10-17T09:42:01.563Z,19.00
2022-10-17T09:44:43.522Z,18.90
2022-10-17T09:47:13.319Z,18.80
2022-10-17T09:49:42.220Z,18.60
2022-10-17T09:52:17.030Z,18.50
2022-10-17T09:54:49.965Z,18.40
2022-10-17T09:57:18.511Z,18.40
2022-10-17T09:59:48.228Z,18.40
2022-10-17T10:02:20.946Z,18.50
2022-10-17T10:05:06.950Z,18.60
2022-10-17T10:07:39.278Z,18.70
2022-10-17T10:10:23.088Z,18.90
2022-10-17T10:13:07.360Z,18.80
2022-10-17T10:15:37.914Z,18.70
2022-10-17T10:18:24.722Z,18.70
2022-10-17T10:21:16.117Z,18.70
2022-10-17T10:23:45.368Z,18.60
2022-10-17T10:26:22.861Z,18.50
2022-10-17T10:29:02.714Z,18.40
2022-10-17T10:31:37.059Z,18.30
2022-10-17T10:34:13.860Z,18.30
2022-10-17T10:36:52.199Z,18.30
2022-10-17T10:39:48.117Z,18.30
2022-10-17T10:42:26.112Z,18.60
2022-10-17T10:44:56.080Z,18.60
2022-10-17T10:47:29.451Z,18.40
2022-10-17T10:50:22.909Z,18.20
2022-10-17T10:52:56.883Z,18.00
2022-10-17T10:55:28.358Z,17.90
2022-10-17T10:58:00.071Z,17.90
2022-10-17T11:00:29.299Z,17.90
2022-10-17T11:03:12.943Z,18.00
2022-10-17T11:05:51.195Z,18.20
2022-10-17T11:08:44.102Z,18.30
2022-10-17T11:11:39.321Z,18.40
2022-10-17T11:14:36.848Z,18.30
2022-10-17T11:17:12.701Z,18.40
2022-10-17T11:20:01.894Z,18.40
2022-10-17T11:22:34.120Z,18.50
2022-10-17T11:25:13.042Z,18.70
2022-10-17T11:27:39.816Z,18.80
2022-10-17T11:30:07.081Z,18.80
2022-10-17T11:32:45.102Z,18.80
2022-10-17T11:35:25.085Z,18.70
2022-10-17T11:38:18.162Z,18.60
2022-10-17T11:40:50.182Z,18.50
2022-10-17T11:43:27.664Z,18.50
2022-10-17T11:46:02.687Z,18.50
2022-10-17T11:48:35.757Z,18.40
2022-10-17T11:54:04.690Z,18.30
2022-10-17T11:56:48.983Z,18.20
2022-10-17T11:59:38.406Z,18.30
2022-10-17T12:02:11.723Z,18.30
2022-10-17T12:04:49.211Z,18.40
2022-10-17T12:07:28.522Z,18.40
2022-10-17T12:10:19.868Z,18.40
2022-10-17T12:12:48.329Z,18.50
2022-10-17T12:15:23.440Z,18.60
2022-10-17T12:18:03.861Z,18.70
2022-10-17T12:20:32.327Z,18.70
2022-10-17T12:23:02.943Z,18.70
2022-10-17T12:25:33.782Z,18.70
2022-10-17T12:28:06.685Z,18.70
2022-10-17T12:30:34.508Z,18.70
2022-10-17T12:33:36.899Z,18.80
2022-10-17T12:36:18.833Z,18.90
2022-10-17T12:38:50.174Z,18.90
2022-10-17T12:41:37.582Z,18.90
2022-10-17T12:44:16.807Z,18.90
2022-10-17T12:47:06.227Z,18.80
2022-10-17T12:49:42.866Z,18.70
2022-10-17T12:52:26.141Z,18.50
2022-10-17T12:55:11.414Z,18.50
2022-10-17T12:58:00.370Z,18.50
2022-10-17T13:00:59.462Z,18.50
2022-10-17T13:03:35.144Z,18.50
2022-10-17T13:06:07.653Z,18.50
2022-10-17T13:08:42.999Z,18.50
2022-10-17T13:11:11.008Z,18.50
2022-10-17T13:13:48.973Z,18.50
2022-10-17T13:16:37.987Z,18.40
2022-10-17T13:19:17.613Z,18.40
2022-10-17T13:22:16.488Z,18.40
2022-10-17T13:24:43.521Z,18.30
2022-10-17T13:27:30.692Z,18.30
2022-10-17T13:30:00.227Z,18.30
2022-10-17T13:32:36.263Z,18.30
2022-10-17T13:35:15.701Z,18.30
2022-10-17T13:37:48.177Z,18.30
2022-10-17T13:40:44.619Z,18.30
2022-10-17T13:43:22.101Z,18.20
2022-10-17T13:46:32.522Z,18.30
2022-10-17T13:49:00.376Z,18.30
2022-10-17T13:51:27.841Z,18.30
2022-10-17T13:53:54.658Z,18.40
2022-10-17T13:56:29.802Z,18.40
2022-10-17T14:11:40.796Z,18.40
2022-10-17T14:14:18.998Z,18.30
2022-10-17T14:16:46.098Z,18.30
2022-10-17T14:19:33.406Z,18.30
2022-10-17T14:22:20.411Z,18.30
2022-10-17T14:24:48.706Z,18.20
2022-10-17T14:27:38.287Z,18.30
2022-10-17T14:30:51.720Z,18.30
2022-10-17T14:33:24.771Z,18.20
2022-10-17T14:35:52.982Z,18.20
2022-10-17T14:38:20.846Z,18.10
2022-10-17T14:41:30.569Z,18.10
2022-10-17T14:43:59.125Z,18.20
2022-10-17T14:46:26.918Z,18.40
2022-10-17T14:49:19.444Z,18.50
2022-10-17T14:52:17.674Z,18.50
2022-10-17T14:54:49.729Z,18.40
2022-10-17T14:57:22.039Z,18.40
2022-10-17T14:59:56.285Z,18.30
2022-10-17T15:02:25.352Z,18.20
2022-10-17T15:04:52.711Z,18.10
2022-10-17T15:07:21.121Z,18.10
2022-10-17T15:09:49.686Z,18.00
2022-10-17T15:12:19.400Z,17.90
2022-10-17T15:14:48.458Z,17.80
2022-10-17T15:17:21.991Z,17.70
2022-10-17T15:19:50.645Z,17.70
2022-10-17T15:22:18.343Z,17.60
2022-10-17T15:24:48.273Z,17.60
2022-10-17T15:27:26.309Z,17.60
2022-10-17T15:29:53.166Z,17.60
2022-10-17T15:32:20.263Z,17.60
2022-10-17T15:34:47.214Z,17.60
2022-10-17T15:37:18.800Z,17.60
2022-10-17T15:39:52.970Z,17.60
2022-10-17T15:42:27.782Z,17.50
2022-10-17T15:44:54.987Z,17.50
2022-10-17T15:47:38.938Z,17.50
2022-10-17T15:50:08.724Z,17.50
2022-10-17T15:52:36.333Z,17.40
2022-10-17T15:55:05.337Z,17.30
2022-10-17T15:57:37.946Z,17.40
2022-10-17T16:00:11.726Z,17.50
2022-10-17T16:02:40.871Z,17.40
2022-10-17T16:05:16.823Z,17.40
2022-10-17T16:07:46.819Z,17.40
2022-10-17T16:10:15.000Z,17.30
2022-10-17T16:12:42.453Z,17.20
2022-10-17T16:15:23.723Z,17.20
2022-10-17T16:17:52.127Z,17.20
2022-10-17T16:20:19.923Z,17.20
2022-10-17T16:22:47.504Z,17.10
2022-10-17T16:25:27.946Z,17.10
2022-10-17T16:27:56.692Z,17.10
2022-10-17T16:30:26.138Z,17.10
2022-10-17T16:32:54.618Z,17.00
2022-10-17T16:35:33.156Z,17.10
2022-10-17T16:38:04.267Z,17.00
2022-10-17T16:40:31.218Z,17.00
2022-10-17T16:42:58.045Z,16.90
2022-10-17T16:45:24.950Z,16.80
2022-10-17T16:47:53.085Z,16.80
2022-10-17T16:50:20.073Z,16.90
2022-10-17T16:52:46.877Z,16.80
2022-10-17T16:55:13.727Z,16.80
2022-10-17T16:57:46.080Z,16.70
2022-10-17T17:00:14.129Z,16.70
2022-10-17T17:02:40.999Z,16.60
2022-10-17T17:05:08.542Z,16.60
2022-10-17T17:07:35.641Z,16.60
2022-10-17T17:10:02.476Z,16.50
2022-10-17T17:12:29.257Z,16.60
2022-10-17T17:14:56.105Z,16.60
2022-10-17T17:17:44.562Z,16.60
2022-10-17T17:20:09.699Z,16.60
2022-10-17T17:22:36.459Z,16.60
2022-10-17T17:25:03.355Z,16.50
2022-10-17T17:27:30.404Z,16.50
2022-10-17T17:29:57.429Z,16.50
2022-10-17T17:32:24.219Z,16.40
2022-10-17T17:34:51.072Z,16.40
2022-10-17T17:37:18.002Z,16.30
2022-10-17T17:39:44.798Z,16.30
2022-10-17T17:42:11.615Z,16.30
2022-10-17T17:44:38.440Z,16.30
2022-10-17T17:47:05.331Z,16.30
2022-10-17T17:49:32.141Z,16.30
2022-10-17T17:51:58.982Z,16.30
2022-10-17T17:54:25.884Z,16.30
2022-10-17T17:56:52.679Z,16.30
2022-10-17T17:59:19.550Z,16.30
2022-10-17T18:01:46.416Z,16.20
2022-10-17T18:04:13.518Z,16.20
2022-10-17T18:06:40.466Z,16.20
2022-10-17T18:09:09.054Z,16.30
2022-10-17T18:11:37.339Z,16.30
2022-10-17T18:14:07.091Z,16.30
2022-10-17T18:16:36.381Z,16.30
2022-10-17T18:19:06.735Z,16.30
2022-10-17T18:21:34.666Z,16.30
2022-10-17T18:24:01.831Z,16.30
2022-10-17T18:26:28.808Z,16.30
2022-10-17T18:28:55.862Z,16.30
2022-10-17T18:31:26.394Z,16.30
2022-10-17T18:33:55.019Z,16.30
2022-10-17T18:36:22.576Z,16.30
2022-10-17T18:38:49.750Z,16.30
2022-10-17T18:41:21.401Z,16.30
2022-10-17T18:43:49.554Z,16.20
2022-10-17T18:46:21.534Z,16.20
2022-10-17T18:48:49.149Z,16.20
2022-10-17T18:51:18.452Z,16.20
2022-10-17T18:53:47.798Z,16.10
2022-10-17T18:56:15.041Z,16.00
2022-10-17T18:58:42.273Z,16.00
2022-10-17T19:01:12.185Z,16.00
2022-10-17T19:03:39.151Z,16.00
2022-10-17T19:06:07.993Z,16.00
2022-10-17T19:08:35.939Z,15.90
2022-10-17T19:11:08.043Z,15.90
2022-10-17T19:13:35.204Z,15.90
2022-10-17T19:16:09.774Z,15.90
2022-10-17T19:18:37.474Z,15.80
2022-10-17T19:21:06.336Z,15.80
2022-10-17T19:23:35.807Z,15.70
2022-10-17T19:26:05.591Z,15.70
2022-10-17T19:28:33.939Z,15.70
2022-10-17T19:31:01.116Z,15.70
2022-10-17T19:36:15.265Z,15.70
2022-10-17T19:38:42.016Z,15.70
2022-10-17T19:41:12.107Z,15.70
2022-10-17T19:43:40.515Z,15.70
2022-10-17T19:46:19.133Z,15.60
2022-10-17T19:48:46.422Z,15.60
2022-10-17T19:51:15.862Z,15.70
2022-10-17T19:53:44.029Z,15.70
2022-10-17T19:56:11.613Z,15.60
2022-10-17T19:58:45.176Z,15.60
2022-10-17T20:01:21.188Z,15.70
2022-10-17T20:03:48.450Z,15.60
2022-10-17T20:06:16.022Z,15.60
2022-10-17T20:08:43.195Z,15.60
2022-10-17T20:11:13.117Z,15.60
2022-10-17T20:13:40.607Z,15.60
2022-10-17T20:16:10.487Z,15.60
2022-10-17T20:18:38.275Z,15.50
2022-10-17T20:21:08.434Z,15.50
2022-10-17T20:23:35.888Z,15.50
2022-10-17T20:26:25.363Z,15.50
2022-10-17T20:28:53.187Z,15.50
2022-10-17T20:31:20.946Z,15.50
2022-10-17T20:33:47.757Z,15.50
2022-10-17T20:36:14.853Z,15.40
2022-10-17T20:38:41.634Z,15.40
2022-10-17T20:41:10.105Z,15.40
2022-10-17T20:43:37.595Z,15.40
2022-10-17T20:46:21.923Z,15.30
2022-10-17T20:48:53.806Z,15.40
2022-10-17T20:51:21.600Z,15.30
2022-10-17T20:53:48.791Z,15.30
2022-10-17T20:56:22.054Z,15.30
2022-10-17T20:58:54.087Z,15.20
2022-10-17T21:01:21.866Z,15.20
2022-10-17T21:03:49.487Z,15.10
2022-10-17T21:06:17.090Z,15.20
2022-10-17T21:08:56.525Z,15.20
2022-10-17T21:11:28.462Z,15.20
2022-10-17T21:14:01.970Z,15.20
2022-10-17T21:16:31.154Z,15.20
2022-10-17T21:18:58.396Z,15.20
2022-10-17T21:21:30.628Z,15.20
2022-10-17T21:24:00.482Z,15.20
2022-10-17T21:26:27.508Z,15.10
2022-10-17T21:28:54.880Z,15.10
2022-10-17T21:31:27.032Z,15.10
2022-10-17T21:33:55.990Z,15.10
2022-10-17T21:36:24.553Z,15.10
2022-10-17T21:38:53.473Z,15.00
2022-10-17T21:41:24.415Z,15.00
2022-10-17T21:44:00.448Z,15.00
2022-10-17T21:46:27.952Z,15.00
2022-10-17T21:48:55.156Z,15.00
2022-10-17T21:51:25.283Z,15.00
2022-10-17T21:53:53.734Z,14.90
2022-10-17T21:56:24.178Z,14.90
2022-10-17T21:58:51.811Z,14.90
2022-10-17T22:01:21.678Z,15.00
2022-10-17T22:03:50.959Z,15.10
2022-10-17T22:09:16.360Z,15.00
2022-10-17T22:11:46.486Z,15.00
2022-10-17T22:14:15.853Z,14.90
2022-10-17T22:16:45.044Z,14.90
2022-10-17T22:19:13.862Z,14.80
2022-10-17T22:21:40.974Z,14.80
2022-10-17T22:24:10.811Z,14.80
2022-10-17T22:26:38.411Z,14.80
2022-10-17T22:29:06.924Z,14.80
2022-10-17T22:31:34.484Z,14.70
2022-10-17T22:34:01.316Z,14.80
2022-10-17T22:36:28.110Z,14.70
2022-10-17T22:38:55.262Z,14.70
2022-10-17T22:41:22.407Z,14.70
2022-10-17T22:43:49.199Z,14.60
2022-10-17T22:46:18.407Z,14.70
2022-10-17T22:48:45.318Z,14.60
2022-10-17T22:51:12.851Z,14.60
2022-10-17T22:53:39.892Z,14.60
2022-10-17T22:56:10.934Z,14.60
2022-10-17T22:58:38.422Z,14.50
2022-10-17T23:01:06.685Z,14.50
2022-10-17T23:03:34.185Z,14.50
2022-10-17T23:06:01.785Z,14.60
2022-10-17T23:08:28.714Z,14.60
2022-10-17T23:10:55.479Z,14.60
2022-10-17T23:13:22.444Z,14.60
2022-10-17T23:15:54.089Z,14.60
2022-10-17T23:18:25.358Z,14.70
2022-10-17T23:20:52.579Z,14.70
2022-10-17T23:23:20.060Z,14.80
2022-10-17T23:25:47.357Z,14.80
2022-10-17T23:28:14.125Z,14.80
2022-10-17T23:30:41.207Z,14.80
2022-10-17T23:33:09.916Z,14.70
2022-10-17T23:35:36.756Z,14.70
2022-10-17T23:38:03.680Z,14.60
2022-10-17T23:40:30.787Z,14.60
2022-10-17T23:42:57.570Z,14.60
2022-10-17T23:45:24.468Z,14.60
2022-10-17T23:47:51.282Z,14.60
2022-10-17T23:50:18.163Z,14.60
2022-10-17T23:52:44.963Z,14.60
2022-10-17T23:55:11.735Z,14.60
2022-10-17T23:57:38.535Z,14.60
